Global Enterprise — 3FCJ6 — position and weather

sailwx.info

Track history (hours):
 
Tides and Currents Weather Stations Pressure Air Temp Water Temp Dewpoint Dewpoint Depression Visibility Wind Speed Wind Dir Waves Ship Positions

Global Enterprise

Last reported at 2017-Sep-16 04:45 UTC. Time now 2017-Nov-17 23:06 UTC.
Position S 02°05' W 044°07'.
Warning: this ship's position is months out of date.

Length 290 m; draft 18.1 m.

Type: Ship. MMSI: 356308000.

Date/timePositionNaut miles runAvg speedWind from/ knotsBaromVisibWave heightAir tempDewpointWater temp
2017-Sep-16 04:45S 02°05' W 044°07'2 8.9
2017-Sep-16 04:30S 02°07' W 044°08'4 8.4
2017-Sep-16 04:00S 02°11' W 044°11'4 8.2
2017-Sep-16 03:30S 02°14' W 044°13'4 8.9
2017-Sep-16 03:00S 02°18' W 044°15'5 9.8
2017-Sep-16 02:30S 02°22' W 044°18'5 9.6
2017-Sep-16 02:00S 02°26' W 044°20'5 9.1
2017-Sep-16 01:30S 02°30' W 044°23'3 6.8
2017-Sep-16 01:00S 02°33' W 044°23'1 0.7
2017-Sep-15 23:55S 02°34' W 044°23'0 0.0
2017-Sep-15 23:25S 02°34' W 044°23'0 0.0
2017-Sep-15 22:52S 02°34' W 044°23'0 0.0
2017-Sep-15 22:28S 02°34' W 044°23'0 0.0
2017-Sep-15 21:49S 02°34' W 044°23'0 0.0
2017-Sep-15 21:25S 02°34' W 044°23'0 0.0
2017-Sep-15 20:55S 02°34' W 044°23'0 0.0
2017-Sep-15 20:19S 02°34' W 044°23'0 0.0
2017-Sep-15 19:55S 02°34' W 044°23'0 0.0
2017-Sep-15 19:13S 02°34' W 044°23'0 0.0
2017-Sep-15 18:16S 02°34' W 044°23'0 0.0
2017-Sep-15 17:58S 02°34' W 044°23'0 0.0
2017-Sep-15 17:28S 02°34' W 044°23'0 0.0
2017-Sep-15 16:46S 02°34' W 044°23'0 0.0
2017-Sep-15 15:55S 02°34' W 044°23'0 0.0
2017-Sep-15 15:28S 02°34' W 044°23'0 0.0
2017-Sep-15 14:58S 02°34' W 044°23'0 0.0
2017-Sep-15 14:22S 02°34' W 044°23'0 0.0
2017-Sep-15 13:55S 02°34' W 044°23'0 0.0
2017-Sep-15 11:07S 02°34' W 044°23'0 0.0
2017-Sep-15 10:43S 02°34' W 044°23'0 0.0
2017-Sep-15 10:07S 02°34' W 044°23'0 0.0
2017-Sep-15 09:55S 02°34' W 044°23'0 0.0
2017-Sep-15 09:25S 02°34' W 044°23'0 0.0
2017-Sep-15 08:49S 02°34' W 044°23'0 0.0
2017-Sep-15 08:28S 02°34' W 044°23'0 0.0
2017-Sep-15 07:58S 02°34' W 044°23'0 0.0
2017-Sep-15 07:28S 02°34' W 044°23'0 0.0
2017-Sep-15 06:58S 02°34' W 044°23'0 0.0
2017-Sep-15 06:25S 02°34' W 044°23'0 0.0
2017-Sep-15 05:58S 02°34' W 044°23'0 0.0
2017-Sep-15 05:28S 02°34' W 044°23'0 0.0
2017-Sep-15 04:55S 02°34' W 044°23'0 0.0
2017-Sep-15 04:28S 02°34' W 044°23'0 0.0
2017-Sep-15 03:55S 02°34' W 044°23'0 0.0
2017-Sep-15 03:28S 02°34' W 044°23'0 0.0
2017-Sep-15 02:55S 02°34' W 044°23'0 0.0
2017-Sep-15 02:29S 02°34' W 044°23'0 0.0
2017-Sep-15 01:58S 02°34' W 044°23'0 0.0
2017-Sep-15 01:25S 02°34' W 044°23'0 0.0
2017-Sep-15 00:58S 02°34' W 044°23'0 0.0
2017-Sep-15 00:25S 02°34' W 044°23'0 0.0
2017-Sep-15 00:00S 02°34' W 044°23'0 0.8
2017-Sep-14 23:30S 02°34' W 044°23'2 3.2
2017-Sep-14 23:00S 02°32' W 044°23'510.6
2017-Sep-14 22:30S 02°27' W 044°21'4 7.3
2017-Sep-14 22:00S 02°24' W 044°20'2 4.2
2017-Sep-14 21:28S 02°22' W 044°21'0 0.1
2017-Sep-14 20:55S 02°22' W 044°21'0 0.0
2017-Sep-14 20:31S 02°22' W 044°21'0 0.0
2017-Sep-14 19:58S 02°22' W 044°21'0 0.1
2017-Sep-14 19:31S 02°22' W 044°21'0 0.1
2017-Sep-14 18:58S 02°22' W 044°21'0 0.3
2017-Sep-14 18:28S 02°22' W 044°21'0 0.2
2017-Sep-14 18:01S 02°22' W 044°21'0 0.1
2017-Sep-14 17:25S 02°22' W 044°21'0 0.0
2017-Sep-14 16:58S 02°22' W 044°21'0 0.0
2017-Sep-14 16:25S 02°22' W 044°21'0 0.0
2017-Sep-14 15:58S 02°22' W 044°21'0 0.0
2017-Sep-14 15:31S 02°22' W 044°21'0 0.1
2017-Sep-14 14:58S 02°22' W 044°21'0 0.0
2017-Sep-14 14:31S 02°22' W 044°21'0 0.0
2017-Sep-14 14:01S 02°22' W 044°21'0 0.1
2017-Sep-14 13:31S 02°22' W 044°21'0 0.0
2017-Sep-14 12:58S 02°22' W 044°21'0 0.0
2017-Sep-14 12:31S 02°22' W 044°21'0 0.1
2017-Sep-14 12:01S 02°22' W 044°21'0 0.0
2017-Sep-14 11:31S 02°22' W 044°21'0 0.1
2017-Sep-14 11:01S 02°22' W 044°21'0 0.2
2017-Sep-14 10:28S 02°22' W 044°21'0 0.3
2017-Sep-14 09:58S 02°22' W 044°21'0 0.1
2017-Sep-14 09:31S 02°22' W 044°21'0 0.0
2017-Sep-14 08:58S 02°22' W 044°21'0 0.0
2017-Sep-14 08:28S 02°22' W 044°21'0 0.0
2017-Sep-14 07:55S 02°22' W 044°21'0 0.0
2017-Sep-14 07:28S 02°22' W 044°21'0 0.0
2017-Sep-14 07:01S 02°22' W 044°21'0 0.1
2017-Sep-14 06:28S 02°22' W 044°21'0 0.1
2017-Sep-14 05:58S 02°22' W 044°21'0 0.3
2017-Sep-14 05:31S 02°22' W 044°21'0 0.1
2017-Sep-14 04:58S 02°22' W 044°21'0 0.1
2017-Sep-14 04:31S 02°22' W 044°21'0 0.0
2017-Sep-14 04:01S 02°22' W 044°21'0 0.0
2017-Sep-14 03:25S 02°22' W 044°21'0 0.1
2017-Sep-14 03:01S 02°22' W 044°21'0 0.0
2017-Sep-14 02:28S 02°22' W 044°21'0 0.0
2017-Sep-14 01:58S 02°22' W 044°21'0 0.0
2017-Sep-14 01:28S 02°22' W 044°21'0 0.0
2017-Sep-14 01:01S 02°22' W 044°21'0 0.0
2017-Sep-14 00:31S 02°22' W 044°21'0 0.0
2017-Sep-13 23:55S 02°22' W 044°21'0 0.0
2017-Sep-13 23:31S 02°22' W 044°21'0 0.0
2017-Sep-13 22:58S 02°22' W 044°21'0 0.0
2017-Sep-13 22:28S 02°22' W 044°21'0 0.2
2017-Sep-13 21:58S 02°22' W 044°21'0 0.5
2017-Sep-13 21:31S 02°22' W 044°21'0 0.1
2017-Sep-13 20:58S 02°22' W 044°21'0 0.0
2017-Sep-13 20:22S 02°22' W 044°21'0 0.0
2017-Sep-13 19:58S 02°22' W 044°21'0 0.0
2017-Sep-13 19:31S 02°22' W 044°21'0 0.0
2017-Sep-13 18:55S 02°22' W 044°21'0 0.0
2017-Sep-13 18:31S 02°22' W 044°21'0 0.1
2017-Sep-13 17:58S 02°22' W 044°21'0 0.2
2017-Sep-13 17:31S 02°22' W 044°21'0 0.2
2017-Sep-13 16:58S 02°22' W 044°21'0 0.1
2017-Sep-13 16:31S 02°22' W 044°21'0 0.0
2017-Sep-13 15:58S 02°22' W 044°21'0 0.0
2017-Sep-13 15:28S 02°22' W 044°21'0 0.0
2017-Sep-13 14:58S 02°22' W 044°21'0 0.1
2017-Sep-13 14:28S 02°22' W 044°21'0 0.0
2017-Sep-13 14:01S 02°22' W 044°21'0 0.0
2017-Sep-13 13:31S 02°22' W 044°21'0 0.0
2017-Sep-13 13:01S 02°22' W 044°21'0 0.0
2017-Sep-13 12:31S 02°22' W 044°21'0 0.0
2017-Sep-13 11:58S 02°22' W 044°21'0 0.1
2017-Sep-13 11:31S 02°22' W 044°21'0 0.0
2017-Sep-13 10:58S 02°22' W 044°21'0 0.0
2017-Sep-13 10:31S 02°22' W 044°21'0 0.0
2017-Sep-13 10:01S 02°22' W 044°21'0 0.0
2017-Sep-13 09:23S 02°22' W 044°21'0 0.4
2017-Sep-13 08:59S 02°22' W 044°21'1 1.0
2017-Sep-13 08:28S 02°22' W 044°21'1 1.4
2017-Sep-13 08:00S 02°22' W 044°21'0 0.0
2017-Sep-13 07:30S 02°22' W 044°21'0 0.0
2017-Sep-13 07:00S 02°22' W 044°21'0 0.0
2017-Sep-13 06:27S 02°22' W 044°21'0 0.0
2017-Sep-13 06:00S 02°22' W 044°21'0 0.1
2017-Sep-13 05:27S 02°22' W 044°21'0 0.1
2017-Sep-13 04:57S 02°22' W 044°21'0 0.3
2017-Sep-13 04:30S 02°22' W 044°21'0 0.2
2017-Sep-13 04:00S 02°22' W 044°21'0 0.1
2017-Sep-13 03:30S 02°22' W 044°21'0 0.1
2017-Sep-13 03:00S 02°22' W 044°21'0 0.0
2017-Sep-13 02:30S 02°22' W 044°21'0 0.1
2017-Sep-13 02:00S 02°22' W 044°21'0 0.0
2017-Sep-13 01:30S 02°22' W 044°21'0 0.0
2017-Sep-13 01:00S 02°22' W 044°21'0 0.0
2017-Sep-13 00:27S 02°22' W 044°21'0 0.0
2017-Sep-13 00:00S 02°22' W 044°21'0 0.0
2017-Sep-12 23:30S 02°22' W 044°21'0 0.0
2017-Sep-12 23:00S 02°22' W 044°21'0 0.0
2017-Sep-12 22:30S 02°22' W 044°21'0 0.0
2017-Sep-12 22:00S 02°22' W 044°21'0 0.0
2017-Sep-12 21:27S 02°22' W 044°21'0 0.0
2017-Sep-12 21:00S 02°22' W 044°21'0 0.5
2017-Sep-12 20:30S 02°22' W 044°21'0 0.3
2017-Sep-12 19:57S 02°22' W 044°21'0 0.1
2017-Sep-12 19:30S 02°22' W 044°21'0 0.0
2017-Sep-12 19:00S 02°22' W 044°21'0 0.0
2017-Sep-12 18:30S 02°22' W 044°21'0 0.0
2017-Sep-12 18:00S 02°22' W 044°21'0 0.0
2017-Sep-12 17:30S 02°22' W 044°21'0 0.1
2017-Sep-12 17:00S 02°22' W 044°21'0 0.0
2017-Sep-12 16:30S 02°22' W 044°21'0 0.3
2017-Sep-12 16:00S 02°22' W 044°21'0 0.3
2017-Sep-12 15:27S 02°22' W 044°21'0 0.1
2017-Sep-12 15:00S 02°22' W 044°21'0 0.0
2017-Sep-12 14:27S 02°22' W 044°21'0 0.0
2017-Sep-12 14:00S 02°22' W 044°21'0 0.0
2017-Sep-12 13:27S 02°22' W 044°21'0 0.1
2017-Sep-12 13:00S 02°22' W 044°21'0 0.0
2017-Sep-12 12:30S 02°22' W 044°21'0 0.0
2017-Sep-12 12:00S 02°22' W 044°21'0 0.0
2017-Sep-12 11:30S 02°22' W 044°21'0 0.0
2017-Sep-12 10:54S 02°22' W 044°21'0 0.0
2017-Sep-12 10:30S 02°22' W 044°21'0 0.1
2017-Sep-12 10:00S 02°22' W 044°21'0 0.0
2017-Sep-12 09:30S 02°22' W 044°21'0 0.0
2017-Sep-12 09:00S 02°22' W 044°21'0 0.0
2017-Sep-12 08:30S 02°22' W 044°21'0 0.4
2017-Sep-12 08:00S 02°22' W 044°21'0 0.2
2017-Sep-12 07:27S 02°22' W 044°21'0 0.1
2017-Sep-12 06:54S 02°22' W 044°21'0 0.0
2017-Sep-12 06:30S 02°22' W 044°21'0 0.0
2017-Sep-12 06:00S 02°22' W 044°21'0 0.2
2017-Sep-12 05:30S 02°22' W 044°20'0 0.1
2017-Sep-12 05:01S 02°22' W 044°21'0 0.1
2017-Sep-12 04:30S 02°22' W 044°21'0 0.1
2017-Sep-12 04:00S 02°22' W 044°21'0 0.3
2017-Sep-12 03:30S 02°22' W 044°21'0 0.2
2017-Sep-12 03:00S 02°22' W 044°21'0 0.1
2017-Sep-12 02:30S 02°22' W 044°21'0 0.1
2017-Sep-12 02:00S 02°22' W 044°21'0 0.0
2017-Sep-12 01:21S 02°22' W 044°21'0 0.0
2017-Sep-12 01:00S 02°22' W 044°21'0 0.0
2017-Sep-12 00:30S 02°22' W 044°21'0 0.0
2017-Sep-12 00:00S 02°22' W 044°21'0 0.0
2017-Sep-11 23:30S 02°22' W 044°21'0 0.0
2017-Sep-11 22:46S 02°22' W 044°21'0 0.0
2017-Sep-11 22:22S 02°22' W 044°21'0 0.0
2017-Sep-11 21:51S 02°22' W 044°21'0 0.0
2017-Sep-11 21:30S 02°22' W 044°21'0 0.0
2017-Sep-11 21:00S 02°22' W 044°21'0 0.0
2017-Sep-11 20:30S 02°22' W 044°21'0 0.0
2017-Sep-11 20:00S 02°22' W 044°21'0 0.5
2017-Sep-11 19:30S 02°22' W 044°21'0 0.2
2017-Sep-11 19:00S 02°22' W 044°21'0 0.1
2017-Sep-11 18:30S 02°22' W 044°21'0 0.0
2017-Sep-11 17:57S 02°22' W 044°21'0 0.0
2017-Sep-11 17:27S 02°22' W 044°21'0 0.0
2017-Sep-11 16:48S 02°22' W 044°21'0 0.0
2017-Sep-11 16:30S 02°22' W 044°21'0 0.1
2017-Sep-11 16:00S 02°22' W 044°21'0 0.1
2017-Sep-11 15:30S 02°22' W 044°21'0 0.4
2017-Sep-11 15:00S 02°22' W 044°21'0 0.1
2017-Sep-11 14:30S 02°22' W 044°21'0 0.1
2017-Sep-11 14:00S 02°22' W 044°21'0 0.1
2017-Sep-11 13:24S 02°22' W 044°21'0 0.0
2017-Sep-11 12:57S 02°22' W 044°21'0 0.0
2017-Sep-11 12:27S 02°22' W 044°21'0 0.0
2017-Sep-11 12:00S 02°22' W 044°21'0 0.0
2017-Sep-11 11:30S 02°22' W 044°21'0 0.0
2017-Sep-11 11:00S 02°22' W 044°21'0 0.0
2017-Sep-11 10:30S 02°22' W 044°21'0 0.0
2017-Sep-11 09:57S 02°22' W 044°21'0 0.1
2017-Sep-11 09:30S 02°22' W 044°21'0 0.1
2017-Sep-11 09:00S 02°22' W 044°21'0 0.0
2017-Sep-11 08:30S 02°22' W 044°21'0 0.0
2017-Sep-11 08:00S 02°22' W 044°21'0 0.2
2017-Sep-11 07:30S 02°22' W 044°21'0 0.4
2017-Sep-11 07:00S 02°22' W 044°21'0 0.2
2017-Sep-11 06:30S 02°22' W 044°21'0 0.1
2017-Sep-11 05:57S 02°22' W 044°21'0 0.0
2017-Sep-11 05:30S 02°22' W 044°21'0 0.0
2017-Sep-11 04:57S 02°22' W 044°21'0 0.0
2017-Sep-11 04:30S 02°22' W 044°21'0 0.0
2017-Sep-11 03:57S 02°22' W 044°21'0 0.1
2017-Sep-11 03:30S 02°22' W 044°21'0 0.2
2017-Sep-11 03:00S 02°22' W 044°21'0 0.2
2017-Sep-11 02:30S 02°22' W 044°21'0 0.2
2017-Sep-11 01:54S 02°22' W 044°21'0 0.2
2017-Sep-11 01:30S 02°22' W 044°21'0 0.1
2017-Sep-11 01:00S 02°22' W 044°21'0 0.1
2017-Sep-11 00:30S 02°22' W 044°21'0 0.0
2017-Sep-11 00:00S 02°22' W 044°21'0 0.0
2017-Sep-10 23:30S 02°22' W 044°21'0 0.0
2017-Sep-10 23:00S 02°22' W 044°21'0 0.0
2017-Sep-10 22:30S 02°22' W 044°21'0 0.0
2017-Sep-10 21:57S 02°22' W 044°21'0 0.0
2017-Sep-10 21:30S 02°22' W 044°21'0 0.0
2017-Sep-10 21:00S 02°22' W 044°21'0 0.0
2017-Sep-10 20:30S 02°22' W 044°21'0 0.0
2017-Sep-10 20:00S 02°22' W 044°21'0 0.0
2017-Sep-10 19:30S 02°22' W 044°21'0 0.4
2017-Sep-10 19:00S 02°22' W 044°21'0 0.3
2017-Sep-10 18:30S 02°22' W 044°21'0 0.1
2017-Sep-10 18:00S 02°22' W 044°21'0 0.0
2017-Sep-10 17:30S 02°22' W 044°21'0 0.0
2017-Sep-10 17:00S 02°22' W 044°21'0 0.0
2017-Sep-10 16:30S 02°22' W 044°21'0 0.0
2017-Sep-10 16:00S 02°22' W 044°21'0 0.0
2017-Sep-10 15:30S 02°22' W 044°21'0 0.1
2017-Sep-10 14:57S 02°22' W 044°21'0 0.2
2017-Sep-10 14:00S 02°22' W 044°21'0 0.2
2017-Sep-10 13:30S 02°22' W 044°21'0 0.1
2017-Sep-10 13:00S 02°22' W 044°21'0 0.1
2017-Sep-10 12:27S 02°22' W 044°21'0 0.0
2017-Sep-10 12:00S 02°22' W 044°21'0 0.0
2017-Sep-10 11:30S 02°22' W 044°21'0 0.0
2017-Sep-10 11:00S 02°22' W 044°21'0 0.0
2017-Sep-10 10:24S 02°22' W 044°21'0 0.0
2017-Sep-10 09:54S 02°22' W 044°21'0 0.0
2017-Sep-10 09:30S 02°22' W 044°21'0 0.0
2017-Sep-10 08:57S 02°22' W 044°21'0 0.1
2017-Sep-10 08:27S 02°22' W 044°21'0 0.0
2017-Sep-10 08:00S 02°22' W 044°21'0 0.0
2017-Sep-10 07:30S 02°22' W 044°21'0 0.1
2017-Sep-10 07:00S 02°22' W 044°21'0 0.5
2017-Sep-10 06:27S 02°22' W 044°21'0 0.1
2017-Sep-10 05:54S 02°22' W 044°21'0 0.1
2017-Sep-10 05:27S 02°22' W 044°21'0 0.0
2017-Sep-10 04:57S 02°22' W 044°21'0 0.0
2017-Sep-10 04:30S 02°22' W 044°21'0 0.0
2017-Sep-10 03:57S 02°22' W 044°21'0 0.0
2017-Sep-10 03:30S 02°22' W 044°21'0 0.0
2017-Sep-10 03:00S 02°22' W 044°21'0 0.0
2017-Sep-10 02:30S 02°22' W 044°21'0 0.1
2017-Sep-10 01:57S 02°22' W 044°21'0 0.4
2017-Sep-10 01:30S 02°22' W 044°21'0 0.3
2017-Sep-10 01:00S 02°22' W 044°21'0 0.1
2017-Sep-10 00:30S 02°22' W 044°21'0 0.1
2017-Sep-10 00:00S 02°22' W 044°21'1 2.1
2017-Sep-09 23:30S 02°22' W 044°20'3 5.7
2017-Sep-09 23:00S 02°20' W 044°18'4 7.6
2017-Sep-09 22:30S 02°18' W 044°15'713.1
2017-Sep-09 22:00S 02°12' W 044°12'714.4
2017-Sep-09 21:30S 02°06' W 044°08'  
Track history (hours):
 
Tides and Currents Weather Stations Pressure Air Temp Water Temp Dewpoint Dewpoint Depression Visibility Wind Speed Wind Dir Waves Ship Positions

Global Enterprise

Last reported at 2017-Sep-16 04:45 UTC. Time now 2017-Nov-17 23:06 UTC.
Position S 02°05' W 044°07'.
Warning: this ship's position is months out of date.

Length 290 m; draft 18.1 m.

Type: Ship. MMSI: 356308000.

Date/timePositionNaut miles runAvg speedWind from/ knotsBaromVisibWave heightAir tempDewpointWater temp
2017-Sep-16 04:45S 02°05' W 044°07'2 8.9
2017-Sep-16 04:30S 02°07' W 044°08'4 8.4
2017-Sep-16 04:00S 02°11' W 044°11'4 8.2
2017-Sep-16 03:30S 02°14' W 044°13'4 8.9
2017-Sep-16 03:00S 02°18' W 044°15'5 9.8
2017-Sep-16 02:30S 02°22' W 044°18'5 9.6
2017-Sep-16 02:00S 02°26' W 044°20'5 9.1
2017-Sep-16 01:30S 02°30' W 044°23'3 6.8
2017-Sep-16 01:00S 02°33' W 044°23'1 0.7
2017-Sep-15 23:55S 02°34' W 044°23'0 0.0
2017-Sep-15 23:25S 02°34' W 044°23'0 0.0
2017-Sep-15 22:52S 02°34' W 044°23'0 0.0
2017-Sep-15 22:28S 02°34' W 044°23'0 0.0
2017-Sep-15 21:49S 02°34' W 044°23'0 0.0
2017-Sep-15 21:25S 02°34' W 044°23'0 0.0
2017-Sep-15 20:55S 02°34' W 044°23'0 0.0
2017-Sep-15 20:19S 02°34' W 044°23'0 0.0
2017-Sep-15 19:55S 02°34' W 044°23'0 0.0
2017-Sep-15 19:13S 02°34' W 044°23'0 0.0
2017-Sep-15 18:16S 02°34' W 044°23'0 0.0
2017-Sep-15 17:58S 02°34' W 044°23'0 0.0
2017-Sep-15 17:28S 02°34' W 044°23'0 0.0
2017-Sep-15 16:46S 02°34' W 044°23'0 0.0
2017-Sep-15 15:55S 02°34' W 044°23'0 0.0
2017-Sep-15 15:28S 02°34' W 044°23'0 0.0
2017-Sep-15 14:58S 02°34' W 044°23'0 0.0
2017-Sep-15 14:22S 02°34' W 044°23'0 0.0
2017-Sep-15 13:55S 02°34' W 044°23'0 0.0
2017-Sep-15 11:07S 02°34' W 044°23'0 0.0
2017-Sep-15 10:43S 02°34' W 044°23'0 0.0
2017-Sep-15 10:07S 02°34' W 044°23'0 0.0
2017-Sep-15 09:55S 02°34' W 044°23'0 0.0
2017-Sep-15 09:25S 02°34' W 044°23'0 0.0
2017-Sep-15 08:49S 02°34' W 044°23'0 0.0
2017-Sep-15 08:28S 02°34' W 044°23'0 0.0
2017-Sep-15 07:58S 02°34' W 044°23'0 0.0
2017-Sep-15 07:28S 02°34' W 044°23'0 0.0
2017-Sep-15 06:58S 02°34' W 044°23'0 0.0
2017-Sep-15 06:25S 02°34' W 044°23'0 0.0
2017-Sep-15 05:58S 02°34' W 044°23'0 0.0
2017-Sep-15 05:28S 02°34' W 044°23'0 0.0
2017-Sep-15 04:55S 02°34' W 044°23'0 0.0
2017-Sep-15 04:28S 02°34' W 044°23'0 0.0
2017-Sep-15 03:55S 02°34' W 044°23'0 0.0
2017-Sep-15 03:28S 02°34' W 044°23'0 0.0
2017-Sep-15 02:55S 02°34' W 044°23'0 0.0
2017-Sep-15 02:29S 02°34' W 044°23'0 0.0
2017-Sep-15 01:58S 02°34' W 044°23'0 0.0
2017-Sep-15 01:25S 02°34' W 044°23'0 0.0
2017-Sep-15 00:58S 02°34' W 044°23'0 0.0
2017-Sep-15 00:25S 02°34' W 044°23'0 0.0
2017-Sep-15 00:00S 02°34' W 044°23'0 0.8
2017-Sep-14 23:30S 02°34' W 044°23'2 3.2
2017-Sep-14 23:00S 02°32' W 044°23'510.6
2017-Sep-14 22:30S 02°27' W 044°21'4 7.3
2017-Sep-14 22:00S 02°24' W 044°20'2 4.2
2017-Sep-14 21:28S 02°22' W 044°21'0 0.1
2017-Sep-14 20:55S 02°22' W 044°21'0 0.0
2017-Sep-14 20:31S 02°22' W 044°21'0 0.0
2017-Sep-14 19:58S 02°22' W 044°21'0 0.1
2017-Sep-14 19:31S 02°22' W 044°21'0 0.1
2017-Sep-14 18:58S 02°22' W 044°21'0 0.3
2017-Sep-14 18:28S 02°22' W 044°21'0 0.2
2017-Sep-14 18:01S 02°22' W 044°21'0 0.1
2017-Sep-14 17:25S 02°22' W 044°21'0 0.0
2017-Sep-14 16:58S 02°22' W 044°21'0 0.0
2017-Sep-14 16:25S 02°22' W 044°21'0 0.0
2017-Sep-14 15:58S 02°22' W 044°21'0 0.0
2017-Sep-14 15:31S 02°22' W 044°21'0 0.1
2017-Sep-14 14:58S 02°22' W 044°21'0 0.0
2017-Sep-14 14:31S 02°22' W 044°21'0 0.0
2017-Sep-14 14:01S 02°22' W 044°21'0 0.1
2017-Sep-14 13:31S 02°22' W 044°21'0 0.0
2017-Sep-14 12:58S 02°22' W 044°21'0 0.0
2017-Sep-14 12:31S 02°22' W 044°21'0 0.1
2017-Sep-14 12:01S 02°22' W 044°21'0 0.0
2017-Sep-14 11:31S 02°22' W 044°21'0 0.1
2017-Sep-14 11:01S 02°22' W 044°21'0 0.2
2017-Sep-14 10:28S 02°22' W 044°21'0 0.3
2017-Sep-14 09:58S 02°22' W 044°21'0 0.1
2017-Sep-14 09:31S 02°22' W 044°21'0 0.0
2017-Sep-14 08:58S 02°22' W 044°21'0 0.0
2017-Sep-14 08:28S 02°22' W 044°21'0 0.0
2017-Sep-14 07:55S 02°22' W 044°21'0 0.0
2017-Sep-14 07:28S 02°22' W 044°21'0 0.0
2017-Sep-14 07:01S 02°22' W 044°21'0 0.1
2017-Sep-14 06:28S 02°22' W 044°21'0 0.1
2017-Sep-14 05:58S 02°22' W 044°21'0 0.3
2017-Sep-14 05:31S 02°22' W 044°21'0 0.1
2017-Sep-14 04:58S 02°22' W 044°21'0 0.1
2017-Sep-14 04:31S 02°22' W 044°21'0 0.0
2017-Sep-14 04:01S 02°22' W 044°21'0 0.0
2017-Sep-14 03:25S 02°22' W 044°21'0 0.1
2017-Sep-14 03:01S 02°22' W 044°21'0 0.0
2017-Sep-14 02:28S 02°22' W 044°21'0 0.0
2017-Sep-14 01:58S 02°22' W 044°21'0 0.0
2017-Sep-14 01:28S 02°22' W 044°21'0 0.0
2017-Sep-14 01:01S 02°22' W 044°21'0 0.0
2017-Sep-14 00:31S 02°22' W 044°21'0 0.0
2017-Sep-13 23:55S 02°22' W 044°21'0 0.0
2017-Sep-13 23:31S 02°22' W 044°21'0 0.0
2017-Sep-13 22:58S 02°22' W 044°21'0 0.0
2017-Sep-13 22:28S 02°22' W 044°21'0 0.2
2017-Sep-13 21:58S 02°22' W 044°21'0 0.5
2017-Sep-13 21:31S 02°22' W 044°21'0 0.1
2017-Sep-13 20:58S 02°22' W 044°21'0 0.0
2017-Sep-13 20:22S 02°22' W 044°21'0 0.0
2017-Sep-13 19:58S 02°22' W 044°21'0 0.0
2017-Sep-13 19:31S 02°22' W 044°21'0 0.0
2017-Sep-13 18:55S 02°22' W 044°21'0 0.0
2017-Sep-13 18:31S 02°22' W 044°21'0 0.1
2017-Sep-13 17:58S 02°22' W 044°21'0 0.2
2017-Sep-13 17:31S 02°22' W 044°21'0 0.2
2017-Sep-13 16:58S 02°22' W 044°21'0 0.1
2017-Sep-13 16:31S 02°22' W 044°21'0 0.0
2017-Sep-13 15:58S 02°22' W 044°21'0 0.0
2017-Sep-13 15:28S 02°22' W 044°21'0 0.0
2017-Sep-13 14:58S 02°22' W 044°21'0 0.1
2017-Sep-13 14:28S 02°22' W 044°21'0 0.0
2017-Sep-13 14:01S 02°22' W 044°21'0 0.0
2017-Sep-13 13:31S 02°22' W 044°21'0 0.0
2017-Sep-13 13:01S 02°22' W 044°21'0 0.0
2017-Sep-13 12:31S 02°22' W 044°21'0 0.0
2017-Sep-13 11:58S 02°22' W 044°21'0 0.1
2017-Sep-13 11:31S 02°22' W 044°21'0 0.0
2017-Sep-13 10:58S 02°22' W 044°21'0 0.0
2017-Sep-13 10:31S 02°22' W 044°21'0 0.0
2017-Sep-13 10:01S 02°22' W 044°21'0 0.0
2017-Sep-13 09:23S 02°22' W 044°21'0 0.4
2017-Sep-13 08:59S 02°22' W 044°21'1 1.0
2017-Sep-13 08:28S 02°22' W 044°21'1 1.4
2017-Sep-13 08:00S 02°22' W 044°21'0 0.0
2017-Sep-13 07:30S 02°22' W 044°21'0 0.0
2017-Sep-13 07:00S 02°22' W 044°21'0 0.0
2017-Sep-13 06:27S 02°22' W 044°21'0 0.0
2017-Sep-13 06:00S 02°22' W 044°21'0 0.1
2017-Sep-13 05:27S 02°22' W 044°21'0 0.1
2017-Sep-13 04:57S 02°22' W 044°21'0 0.3
2017-Sep-13 04:30S 02°22' W 044°21'0 0.2
2017-Sep-13 04:00S 02°22' W 044°21'0 0.1
2017-Sep-13 03:30S 02°22' W 044°21'0 0.1
2017-Sep-13 03:00S 02°22' W 044°21'0 0.0
2017-Sep-13 02:30S 02°22' W 044°21'0 0.1
2017-Sep-13 02:00S 02°22' W 044°21'0 0.0
2017-Sep-13 01:30S 02°22' W 044°21'0 0.0
2017-Sep-13 01:00S 02°22' W 044°21'0 0.0
2017-Sep-13 00:27S 02°22' W 044°21'0 0.0
2017-Sep-13 00:00S 02°22' W 044°21'0 0.0
2017-Sep-12 23:30S 02°22' W 044°21'0 0.0
2017-Sep-12 23:00S 02°22' W 044°21'0 0.0
2017-Sep-12 22:30S 02°22' W 044°21'0 0.0
2017-Sep-12 22:00S 02°22' W 044°21'0 0.0
2017-Sep-12 21:27S 02°22' W 044°21'0 0.0
2017-Sep-12 21:00S 02°22' W 044°21'0 0.5
2017-Sep-12 20:30S 02°22' W 044°21'0 0.3
2017-Sep-12 19:57S 02°22' W 044°21'0 0.1
2017-Sep-12 19:30S 02°22' W 044°21'0 0.0
2017-Sep-12 19:00S 02°22' W 044°21'0 0.0
2017-Sep-12 18:30S 02°22' W 044°21'0 0.0
2017-Sep-12 18:00S 02°22' W 044°21'0 0.0
2017-Sep-12 17:30S 02°22' W 044°21'0 0.1
2017-Sep-12 17:00S 02°22' W 044°21'0 0.0
2017-Sep-12 16:30S 02°22' W 044°21'0 0.3
2017-Sep-12 16:00S 02°22' W 044°21'0 0.3
2017-Sep-12 15:27S 02°22' W 044°21'0 0.1
2017-Sep-12 15:00S 02°22' W 044°21'0 0.0
2017-Sep-12 14:27S 02°22' W 044°21'0 0.0
2017-Sep-12 14:00S 02°22' W 044°21'0 0.0
2017-Sep-12 13:27S 02°22' W 044°21'0 0.1
2017-Sep-12 13:00S 02°22' W 044°21'0 0.0
2017-Sep-12 12:30S 02°22' W 044°21'0 0.0
2017-Sep-12 12:00S 02°22' W 044°21'0 0.0
2017-Sep-12 11:30S 02°22' W 044°21'0 0.0
2017-Sep-12 10:54S 02°22' W 044°21'0 0.0
2017-Sep-12 10:30S 02°22' W 044°21'0 0.1
2017-Sep-12 10:00S 02°22' W 044°21'0 0.0
2017-Sep-12 09:30S 02°22' W 044°21'0 0.0
2017-Sep-12 09:00S 02°22' W 044°21'0 0.0
2017-Sep-12 08:30S 02°22' W 044°21'0 0.4
2017-Sep-12 08:00S 02°22' W 044°21'0 0.2
2017-Sep-12 07:27S 02°22' W 044°21'0 0.1
2017-Sep-12 06:54S 02°22' W 044°21'0 0.0
2017-Sep-12 06:30S 02°22' W 044°21'0 0.0
2017-Sep-12 06:00S 02°22' W 044°21'0 0.2
2017-Sep-12 05:30S 02°22' W 044°20'0 0.1
2017-Sep-12 05:01S 02°22' W 044°21'0 0.1
2017-Sep-12 04:30S 02°22' W 044°21'0 0.1
2017-Sep-12 04:00S 02°22' W 044°21'0 0.3
2017-Sep-12 03:30S 02°22' W 044°21'0 0.2
2017-Sep-12 03:00S 02°22' W 044°21'0 0.1
2017-Sep-12 02:30S 02°22' W 044°21'0 0.1
2017-Sep-12 02:00S 02°22' W 044°21'0 0.0
2017-Sep-12 01:21S 02°22' W 044°21'0 0.0
2017-Sep-12 01:00S 02°22' W 044°21'0 0.0
2017-Sep-12 00:30S 02°22' W 044°21'0 0.0
2017-Sep-12 00:00S 02°22' W 044°21'0 0.0
2017-Sep-11 23:30S 02°22' W 044°21'0 0.0
2017-Sep-11 22:46S 02°22' W 044°21'0 0.0
2017-Sep-11 22:22S 02°22' W 044°21'0 0.0
2017-Sep-11 21:51S 02°22' W 044°21'0 0.0
2017-Sep-11 21:30S 02°22' W 044°21'0 0.0
2017-Sep-11 21:00S 02°22' W 044°21'0 0.0
2017-Sep-11 20:30S 02°22' W 044°21'0 0.0
2017-Sep-11 20:00S 02°22' W 044°21'0 0.5
2017-Sep-11 19:30S 02°22' W 044°21'0 0.2
2017-Sep-11 19:00S 02°22' W 044°21'0 0.1
2017-Sep-11 18:30S 02°22' W 044°21'0 0.0
2017-Sep-11 17:57S 02°22' W 044°21'0 0.0
2017-Sep-11 17:27S 02°22' W 044°21'0 0.0
2017-Sep-11 16:48S 02°22' W 044°21'0 0.0
2017-Sep-11 16:30S 02°22' W 044°21'0 0.1
2017-Sep-11 16:00S 02°22' W 044°21'0 0.1
2017-Sep-11 15:30S 02°22' W 044°21'0 0.4
2017-Sep-11 15:00S 02°22' W 044°21'0 0.1
2017-Sep-11 14:30S 02°22' W 044°21'0 0.1
2017-Sep-11 14:00S 02°22' W 044°21'0 0.1
2017-Sep-11 13:24S 02°22' W 044°21'0 0.0
2017-Sep-11 12:57S 02°22' W 044°21'0 0.0
2017-Sep-11 12:27S 02°22' W 044°21'0 0.0
2017-Sep-11 12:00S 02°22' W 044°21'0 0.0
2017-Sep-11 11:30S 02°22' W 044°21'0 0.0
2017-Sep-11 11:00S 02°22' W 044°21'0 0.0
2017-Sep-11 10:30S 02°22' W 044°21'0 0.0
2017-Sep-11 09:57S 02°22' W 044°21'0 0.1
2017-Sep-11 09:30S 02°22' W 044°21'0 0.1
2017-Sep-11 09:00S 02°22' W 044°21'0 0.0
2017-Sep-11 08:30S 02°22' W 044°21'0 0.0
2017-Sep-11 08:00S 02°22' W 044°21'0 0.2
2017-Sep-11 07:30S 02°22' W 044°21'0 0.4
2017-Sep-11 07:00S 02°22' W 044°21'0 0.2
2017-Sep-11 06:30S 02°22' W 044°21'0 0.1
2017-Sep-11 05:57S 02°22' W 044°21'0 0.0
2017-Sep-11 05:30S 02°22' W 044°21'0 0.0
2017-Sep-11 04:57S 02°22' W 044°21'0 0.0
2017-Sep-11 04:30S 02°22' W 044°21'0 0.0
2017-Sep-11 03:57S 02°22' W 044°21'0 0.1
2017-Sep-11 03:30S 02°22' W 044°21'0 0.2
2017-Sep-11 03:00S 02°22' W 044°21'0 0.2
2017-Sep-11 02:30S 02°22' W 044°21'0 0.2
2017-Sep-11 01:54S 02°22' W 044°21'0 0.2
2017-Sep-11 01:30S 02°22' W 044°21'0 0.1
2017-Sep-11 01:00S 02°22' W 044°21'0 0.1
2017-Sep-11 00:30S 02°22' W 044°21'0 0.0
2017-Sep-11 00:00S 02°22' W 044°21'0 0.0
2017-Sep-10 23:30S 02°22' W 044°21'0 0.0
2017-Sep-10 23:00S 02°22' W 044°21'0 0.0
2017-Sep-10 22:30S 02°22' W 044°21'0 0.0
2017-Sep-10 21:57S 02°22' W 044°21'0 0.0
2017-Sep-10 21:30S 02°22' W 044°21'0 0.0
2017-Sep-10 21:00S 02°22' W 044°21'0 0.0
2017-Sep-10 20:30S 02°22' W 044°21'0 0.0
2017-Sep-10 20:00S 02°22' W 044°21'0 0.0
2017-Sep-10 19:30S 02°22' W 044°21'0 0.4
2017-Sep-10 19:00S 02°22' W 044°21'0 0.3
2017-Sep-10 18:30S 02°22' W 044°21'0 0.1
2017-Sep-10 18:00S 02°22' W 044°21'0 0.0
2017-Sep-10 17:30S 02°22' W 044°21'0 0.0
2017-Sep-10 17:00S 02°22' W 044°21'0 0.0
2017-Sep-10 16:30S 02°22' W 044°21'0 0.0
2017-Sep-10 16:00S 02°22' W 044°21'0 0.0
2017-Sep-10 15:30S 02°22' W 044°21'0 0.1
2017-Sep-10 14:57S 02°22' W 044°21'0 0.2
2017-Sep-10 14:00S 02°22' W 044°21'0 0.2
2017-Sep-10 13:30S 02°22' W 044°21'0 0.1
2017-Sep-10 13:00S 02°22' W 044°21'0 0.1
2017-Sep-10 12:27S 02°22' W 044°21'0 0.0
2017-Sep-10 12:00S 02°22' W 044°21'0 0.0
2017-Sep-10 11:30S 02°22' W 044°21'0 0.0
2017-Sep-10 11:00S 02°22' W 044°21'0 0.0
2017-Sep-10 10:24S 02°22' W 044°21'0 0.0
2017-Sep-10 09:54S 02°22' W 044°21'0 0.0
2017-Sep-10 09:30S 02°22' W 044°21'0 0.0
2017-Sep-10 08:57S 02°22' W 044°21'0 0.1
2017-Sep-10 08:27S 02°22' W 044°21'0 0.0
2017-Sep-10 08:00S 02°22' W 044°21'0 0.0
2017-Sep-10 07:30S 02°22' W 044°21'0 0.1
2017-Sep-10 07:00S 02°22' W 044°21'0 0.5
2017-Sep-10 06:27S 02°22' W 044°21'0 0.1
2017-Sep-10 05:54S 02°22' W 044°21'0 0.1
2017-Sep-10 05:27S 02°22' W 044°21'0 0.0
2017-Sep-10 04:57S 02°22' W 044°21'0 0.0
2017-Sep-10 04:30S 02°22' W 044°21'0 0.0
2017-Sep-10 03:57S 02°22' W 044°21'0 0.0
2017-Sep-10 03:30S 02°22' W 044°21'0 0.0
2017-Sep-10 03:00S 02°22' W 044°21'0 0.0
2017-Sep-10 02:30S 02°22' W 044°21'0 0.1
2017-Sep-10 01:57S 02°22' W 044°21'0 0.4
2017-Sep-10 01:30S 02°22' W 044°21'0 0.3
2017-Sep-10 01:00S 02°22' W 044°21'0 0.1
2017-Sep-10 00:30S 02°22' W 044°21'0 0.1
2017-Sep-10 00:00S 02°22' W 044°21'1 2.1
2017-Sep-09 23:30S 02°22' W 044°20'3 5.7
2017-Sep-09 23:00S 02°20' W 044°18'4 7.6
2017-Sep-09 22:30S 02°18' W 044°15'713.1
2017-Sep-09 22:00S 02°12' W 044°12'714.4
2017-Sep-09 21:30S 02°06' W 044°08'  

Dump ship's entire track history